sensor_id;sensor_type;location;lat;lon;timestamp;temperature;humidity
21353;DHT22;10834;52.268;6.770;2023-02-01T00:02:44;4.80;99.90
21353;DHT22;10834;52.268;6.770;2023-02-01T00:05:30;4.80;99.90
21353;DHT22;10834;52.268;6.770;2023-02-01T00:08:16;4.80;99.90
21353;DHT22;10834;52.268;6.770;2023-02-01T00:11:07;4.90;99.90
21353;DHT22;10834;52.268;6.770;2023-02-01T00:13:54;4.80;99.90
21353;DHT22;10834;52.268;6.770;2023-02-01T00:16:41;4.80;99.90
21353;DHT22;10834;52.268;6.770;2023-02-01T00:19:27;4.90;99.90
21353;DHT22;10834;52.268;6.770;2023-02-01T00:22:13;4.90;99.90
21353;DHT22;10834;52.268;6.770;2023-02-01T00:24:59;4.90;99.90
21353;DHT22;10834;52.268;6.770;2023-02-01T00:27:49;4.90;99.90
21353;DHT22;10834;52.268;6.770;2023-02-01T00:30:35;4.90;99.90
21353;DHT22;10834;52.268;6.770;2023-02-01T00:33:21;4.80;99.90
21353;DHT22;10834;52.268;6.770;2023-02-01T00:36:08;4.80;99.90
21353;DHT22;10834;52.268;6.770;2023-02-01T00:38:55;4.80;99.90
21353;DHT22;10834;52.268;6.770;2023-02-01T00:41:41;4.80;99.90
21353;DHT22;10834;52.268;6.770;2023-02-01T00:44:27;4.80;99.90
21353;DHT22;10834;52.268;6.770;2023-02-01T00:47:13;4.80;99.90
21353;DHT22;10834;52.268;6.770;2023-02-01T00:49:59;4.80;99.90
21353;DHT22;10834;52.268;6.770;2023-02-01T00:52:45;4.70;99.90
21353;DHT22;10834;52.268;6.770;2023-02-01T00:55:31;4.80;99.90
21353;DHT22;10834;52.268;6.770;2023-02-01T00:58:17;4.80;99.90
21353;DHT22;10834;52.268;6.770;2023-02-01T01:03:59;4.90;99.90
21353;DHT22;10834;52.268;6.770;2023-02-01T01:06:45;4.90;99.90
21353;DHT22;10834;52.268;6.770;2023-02-01T01:09:31;4.90;99.90
21353;DHT22;10834;52.268;6.770;2023-02-01T01:12:17;5.00;99.90
21353;DHT22;10834;52.268;6.770;2023-02-01T01:15:06;4.90;99.90
21353;DHT22;10834;52.268;6.770;2023-02-01T01:17:52;5.00;99.90
21353;DHT22;10834;52.268;6.770;2023-02-01T01:20:40;5.00;99.90
21353;DHT22;10834;52.268;6.770;2023-02-01T01:23:27;5.00;99.90
21353;DHT22;10834;52.268;6.770;2023-02-01T01:26:21;5.10;99.90
21353;DHT22;10834;52.268;6.770;2023-02-01T01:29:09;5.10;99.90
21353;DHT22;10834;52.268;6.770;2023-02-01T01:31:56;5.10;99.90
21353;DHT22;10834;52.268;6.770;2023-02-01T01:34:42;5.10;99.90
21353;DHT22;10834;52.268;6.770;2023-02-01T01:37:28;5.00;99.90
21353;DHT22;10834;52.268;6.770;2023-02-01T01:40:14;5.00;99.90
21353;DHT22;10834;52.268;6.770;2023-02-01T01:43:00;5.10;99.90
21353;DHT22;10834;52.268;6.770;2023-02-01T01:45:46;5.00;99.90
21353;DHT22;10834;52.268;6.770;2023-02-01T01:48:32;5.10;99.90
21353;DHT22;10834;52.268;6.770;2023-02-01T01:51:20;5.00;99.90
21353;DHT22;10834;52.268;6.770;2023-02-01T01:54:14;5.10;99.90
21353;DHT22;10834;52.268;6.770;2023-02-01T01:57:11;5.00;99.90
21353;DHT22;10834;52.268;6.770;2023-02-01T02:00:08;5.00;99.90
21353;DHT22;10834;52.268;6.770;2023-02-01T02:03:19;4.90;99.90
21353;DHT22;10834;52.268;6.770;2023-02-01T02:06:17;4.90;99.90
21353;DHT22;10834;52.268;6.770;2023-02-01T02:09:07;4.90;99.90
21353;DHT22;10834;52.268;6.770;2023-02-01T02:11:53;4.90;99.90
21353;DHT22;10834;52.268;6.770;2023-02-01T02:14:39;4.90;99.90
21353;DHT22;10834;52.268;6.770;2023-02-01T02:17:45;4.90;99.90
21353;DHT22;10834;52.268;6.770;2023-02-01T02:20:51;4.90;99.90
21353;DHT22;10834;52.268;6.770;2023-02-01T02:27:21;4.90;99.90
21353;DHT22;10834;52.268;6.770;2023-02-01T02:30:29;4.90;99.90
21353;DHT22;10834;52.268;6.770;2023-02-01T02:33:45;4.90;99.90
21353;DHT22;10834;52.268;6.770;2023-02-01T02:42:45;4.90;99.90
21353;DHT22;10834;52.268;6.770;2023-02-01T02:46:04;4.90;99.90
21353;DHT22;10834;52.268;6.770;2023-02-01T02:49:14;4.90;99.90
21353;DHT22;10834;52.268;6.770;2023-02-01T02:52:16;4.90;99.90
21353;DHT22;10834;52.268;6.770;2023-02-01T02:55:24;4.90;99.90
21353;DHT22;10834;52.268;6.770;2023-02-01T02:58:13;5.00;99.90
21353;DHT22;10834;52.268;6.770;2023-02-01T03:01:19;5.00;99.90
21353;DHT22;10834;52.268;6.770;2023-02-01T03:04:24;5.00;99.90
21353;DHT22;10834;52.268;6.770;2023-02-01T03:10:33;5.10;99.90
21353;DHT22;10834;52.268;6.770;2023-02-01T03:13:45;5.20;99.90
21353;DHT22;10834;52.268;6.770;2023-02-01T03:16:50;5.20;99.90
21353;DHT22;10834;52.268;6.770;2023-02-01T03:19:40;5.20;99.90
21353;DHT22;10834;52.268;6.770;2023-02-01T03:22:33;5.20;99.90
21353;DHT22;10834;52.268;6.770;2023-02-01T03:25:27;5.20;99.90
21353;DHT22;10834;52.268;6.770;2023-02-01T03:28:15;5.20;99.90
21353;DHT22;10834;52.268;6.770;2023-02-01T03:31:05;5.20;99.90
21353;DHT22;10834;52.268;6.770;2023-02-01T03:33:51;5.20;99.90
21353;DHT22;10834;52.268;6.770;2023-02-01T03:36:41;5.30;99.90
21353;DHT22;10834;52.268;6.770;2023-02-01T03:42:32;5.20;99.90
21353;DHT22;10834;52.268;6.770;2023-02-01T03:45:29;5.10;99.90
21353;DHT22;10834;52.268;6.770;2023-02-01T03:48:18;5.10;99.90
21353;DHT22;10834;52.268;6.770;2023-02-01T03:51:06;5.10;99.90
21353;DHT22;10834;52.268;6.770;2023-02-01T03:53:53;5.10;99.90
21353;DHT22;10834;52.268;6.770;2023-02-01T03:56:42;5.20;99.90
21353;DHT22;10834;52.268;6.770;2023-02-01T03:59:29;5.30;99.90
21353;DHT22;10834;52.268;6.770;2023-02-01T04:02:16;5.30;99.90
21353;DHT22;10834;52.268;6.770;2023-02-01T04:05:02;5.40;99.90
21353;DHT22;10834;52.268;6.770;2023-02-01T04:07:48;5.40;99.90
21353;DHT22;10834;52.268;6.770;2023-02-01T04:10:34;5.50;99.90
21353;DHT22;10834;52.268;6.770;2023-02-01T04:13:20;5.60;99.90
21353;DHT22;10834;52.268;6.770;2023-02-01T04:16:06;5.60;99.90
21353;DHT22;10834;52.268;6.770;2023-02-01T04:18:52;5.60;99.90
21353;DHT22;10834;52.268;6.770;2023-02-01T04:21:39;5.60;99.90
21353;DHT22;10834;52.268;6.770;2023-02-01T04:24:24;5.70;99.90
21353;DHT22;10834;52.268;6.770;2023-02-01T04:27:11;5.70;99.90
21353;DHT22;10834;52.268;6.770;2023-02-01T04:29:57;5.80;99.90
21353;DHT22;10834;52.268;6.770;2023-02-01T04:32:43;5.80;99.90
21353;DHT22;10834;52.268;6.770;2023-02-01T04:35:29;5.90;99.90
21353;DHT22;10834;52.268;6.770;2023-02-01T04:38:15;5.90;99.90
21353;DHT22;10834;52.268;6.770;2023-02-01T04:41:01;6.00;99.90
21353;DHT22;10834;52.268;6.770;2023-02-01T04:43:48;6.00;99.90
21353;DHT22;10834;52.268;6.770;2023-02-01T04:46:34;6.00;99.90
21353;DHT22;10834;52.268;6.770;2023-02-01T04:49:20;6.00;99.90
21353;DHT22;10834;52.268;6.770;2023-02-01T04:52:07;6.00;99.90
21353;DHT22;10834;52.268;6.770;2023-02-01T04:54:53;6.00;99.90
21353;DHT22;10834;52.268;6.770;2023-02-01T04:57:43;6.10;99.90
21353;DHT22;10834;52.268;6.770;2023-02-01T05:00:29;6.10;99.90
21353;DHT22;10834;52.268;6.770;2023-02-01T05:03:15;6.10;99.90
21353;DHT22;10834;52.268;6.770;2023-02-01T05:06:01;6.20;99.90
21353;DHT22;10834;52.268;6.770;2023-02-01T05:08:49;6.20;99.90
21353;DHT22;10834;52.268;6.770;2023-02-01T05:11:35;6.20;99.90
21353;DHT22;10834;52.268;6.770;2023-02-01T05:14:40;6.20;99.90
21353;DHT22;10834;52.268;6.770;2023-02-01T05:17:26;6.20;99.90
21353;DHT22;10834;52.268;6.770;2023-02-01T05:20:12;6.20;99.90
21353;DHT22;10834;52.268;6.770;2023-02-01T05:22:58;6.20;99.90
21353;DHT22;10834;52.268;6.770;2023-02-01T05:25:44;6.20;99.90
21353;DHT22;10834;52.268;6.770;2023-02-01T05:28:30;6.20;99.90
21353;DHT22;10834;52.268;6.770;2023-02-01T05:31:17;6.30;99.90
21353;DHT22;10834;52.268;6.770;2023-02-01T05:34:03;6.30;99.90
21353;DHT22;10834;52.268;6.770;2023-02-01T05:36:49;6.30;99.90
21353;DHT22;10834;52.268;6.770;2023-02-01T05:39:35;6.20;99.90
21353;DHT22;10834;52.268;6.770;2023-02-01T05:42:22;6.20;99.90
21353;DHT22;10834;52.268;6.770;2023-02-01T05:45:08;6.20;99.90
21353;DHT22;10834;52.268;6.770;2023-02-01T05:47:54;6.10;99.90
21353;DHT22;10834;52.268;6.770;2023-02-01T05:50:40;6.20;99.90
21353;DHT22;10834;52.268;6.770;2023-02-01T05:53:26;6.00;99.90
21353;DHT22;10834;52.268;6.770;2023-02-01T05:56:12;6.10;99.90
21353;DHT22;10834;52.268;6.770;2023-02-01T05:58:58;6.10;99.90
21353;DHT22;10834;52.268;6.770;2023-02-01T06:01:44;6.20;99.90
21353;DHT22;10834;52.268;6.770;2023-02-01T06:04:30;6.20;99.90
21353;DHT22;10834;52.268;6.770;2023-02-01T06:07:16;6.20;99.90
21353;DHT22;10834;52.268;6.770;2023-02-01T06:10:03;6.20;99.90
21353;DHT22;10834;52.268;6.770;2023-02-01T06:12:49;6.20;99.90
21353;DHT22;10834;52.268;6.770;2023-02-01T06:15:35;6.10;99.90
21353;DHT22;10834;52.268;6.770;2023-02-01T06:18:24;6.20;99.90
21353;DHT22;10834;52.268;6.770;2023-02-01T06:21:10;6.20;99.90
21353;DHT22;10834;52.268;6.770;2023-02-01T06:23:56;6.20;99.90
21353;DHT22;10834;52.268;6.770;2023-02-01T06:26:43;6.20;99.90
21353;DHT22;10834;52.268;6.770;2023-02-01T06:29:29;6.30;99.90
21353;DHT22;10834;52.268;6.770;2023-02-01T06:32:15;6.30;99.90
21353;DHT22;10834;52.268;6.770;2023-02-01T06:35:03;6.30;99.90
21353;DHT22;10834;52.268;6.770;2023-02-01T06:37:49;6.30;99.90
21353;DHT22;10834;52.268;6.770;2023-02-01T06:40:35;6.30;99.90
21353;DHT22;10834;52.268;6.770;2023-02-01T06:43:25;6.30;99.90
21353;DHT22;10834;52.268;6.770;2023-02-01T06:46:12;6.30;99.90
21353;DHT22;10834;52.268;6.770;2023-02-01T06:48:58;6.30;99.90
21353;DHT22;10834;52.268;6.770;2023-02-01T06:51:45;6.30;99.90
21353;DHT22;10834;52.268;6.770;2023-02-01T06:54:31;6.30;99.90
21353;DHT22;10834;52.268;6.770;2023-02-01T06:57:19;6.30;99.90
21353;DHT22;10834;52.268;6.770;2023-02-01T07:00:05;6.30;99.90
21353;DHT22;10834;52.268;6.770;2023-02-01T07:02:51;6.30;99.90
21353;DHT22;10834;52.268;6.770;2023-02-01T07:05:38;6.30;99.90
21353;DHT22;10834;52.268;6.770;2023-02-01T07:08:24;6.30;99.90
21353;DHT22;10834;52.268;6.770;2023-02-01T07:11:12;6.30;99.90
21353;DHT22;10834;52.268;6.770;2023-02-01T07:13:58;6.30;99.90
21353;DHT22;10834;52.268;6.770;2023-02-01T07:16:44;6.40;99.90
21353;DHT22;10834;52.268;6.770;2023-02-01T07:19:30;6.30;99.90
21353;DHT22;10834;52.268;6.770;2023-02-01T07:22:17;6.40;99.90
21353;DHT22;10834;52.268;6.770;2023-02-01T07:25:03;6.40;99.90
21353;DHT22;10834;52.268;6.770;2023-02-01T07:27:49;6.40;99.90
21353;DHT22;10834;52.268;6.770;2023-02-01T07:30:35;6.40;99.90
21353;DHT22;10834;52.268;6.770;2023-02-01T07:33:23;6.40;99.90
21353;DHT22;10834;52.268;6.770;2023-02-01T07:36:14;6.40;99.90
21353;DHT22;10834;52.268;6.770;2023-02-01T07:39:00;6.50;99.90
21353;DHT22;10834;52.268;6.770;2023-02-01T07:41:46;6.50;99.90
21353;DHT22;10834;52.268;6.770;2023-02-01T07:44:32;6.50;99.90
21353;DHT22;10834;52.268;6.770;2023-02-01T07:47:18;6.40;99.90
21353;DHT22;10834;52.268;6.770;2023-02-01T07:50:06;6.50;99.90
21353;DHT22;10834;52.268;6.770;2023-02-01T07:52:52;6.50;99.90
21353;DHT22;10834;52.268;6.770;2023-02-01T07:55:40;6.50;99.90
21353;DHT22;10834;52.268;6.770;2023-02-01T07:58:26;6.50;99.90
21353;DHT22;10834;52.268;6.770;2023-02-01T08:01:21;6.50;99.90
21353;DHT22;10834;52.268;6.770;2023-02-01T08:04:10;6.50;99.90
21353;DHT22;10834;52.268;6.770;2023-02-01T08:06:57;6.60;99.90
21353;DHT22;10834;52.268;6.770;2023-02-01T08:09:43;6.60;99.90
21353;DHT22;10834;52.268;6.770;2023-02-01T08:12:29;6.60;99.90
21353;DHT22;10834;52.268;6.770;2023-02-01T08:15:15;6.70;99.90
21353;DHT22;10834;52.268;6.770;2023-02-01T08:18:02;6.70;99.90
21353;DHT22;10834;52.268;6.770;2023-02-01T08:20:48;6.80;99.90
21353;DHT22;10834;52.268;6.770;2023-02-01T08:23:35;6.80;99.90
21353;DHT22;10834;52.268;6.770;2023-02-01T08:26:24;6.80;99.90
21353;DHT22;10834;52.268;6.770;2023-02-01T08:29:10;6.80;99.90
21353;DHT22;10834;52.268;6.770;2023-02-01T08:31:58;6.80;99.90
21353;DHT22;10834;52.268;6.770;2023-02-01T08:34:45;6.80;99.90
21353;DHT22;10834;52.268;6.770;2023-02-01T08:37:31;6.70;99.90
21353;DHT22;10834;52.268;6.770;2023-02-01T08:40:17;6.80;99.90
21353;DHT22;10834;52.268;6.770;2023-02-01T08:43:03;6.90;99.90
21353;DHT22;10834;52.268;6.770;2023-02-01T08:45:50;7.00;99.90
21353;DHT22;10834;52.268;6.770;2023-02-01T08:48:39;7.10;99.90
21353;DHT22;10834;52.268;6.770;2023-02-01T08:51:26;7.40;99.90
21353;DHT22;10834;52.268;6.770;2023-02-01T08:54:12;7.70;99.90
21353;DHT22;10834;52.268;6.770;2023-02-01T08:56:57;7.70;99.90
21353;DHT22;10834;52.268;6.770;2023-02-01T08:59:44;7.60;99.90
21353;DHT22;10834;52.268;6.770;2023-02-01T09:02:30;7.50;99.90
21353;DHT22;10834;52.268;6.770;2023-02-01T09:05:16;7.50;99.90
21353;DHT22;10834;52.268;6.770;2023-02-01T09:08:04;7.50;99.90
21353;DHT22;10834;52.268;6.770;2023-02-01T09:10:50;7.40;99.90
21353;DHT22;10834;52.268;6.770;2023-02-01T09:13:36;7.50;99.90
21353;DHT22;10834;52.268;6.770;2023-02-01T09:16:23;7.40;99.90
21353;DHT22;10834;52.268;6.770;2023-02-01T09:19:09;7.50;99.90
21353;DHT22;10834;52.268;6.770;2023-02-01T09:21:55;7.50;99.90
21353;DHT22;10834;52.268;6.770;2023-02-01T09:24:41;7.50;99.90
21353;DHT22;10834;52.268;6.770;2023-02-01T09:27:27;7.60;99.90
21353;DHT22;10834;52.268;6.770;2023-02-01T09:30:13;7.60;99.90
21353;DHT22;10834;52.268;6.770;2023-02-01T09:32:59;7.70;99.90
21353;DHT22;10834;52.268;6.770;2023-02-01T09:35:45;7.80;99.90
21353;DHT22;10834;52.268;6.770;2023-02-01T09:38:32;7.80;99.90
21353;DHT22;10834;52.268;6.770;2023-02-01T09:41:32;7.80;99.90
21353;DHT22;10834;52.268;6.770;2023-02-01T09:47:18;7.70;99.90
21353;DHT22;10834;52.268;6.770;2023-02-01T09:50:20;7.80;99.90
21353;DHT22;10834;52.268;6.770;2023-02-01T09:56:23;7.80;99.90
21353;DHT22;10834;52.268;6.770;2023-02-01T10:01:56;7.70;99.90
21353;DHT22;10834;52.268;6.770;2023-02-01T10:04:45;7.70;99.90
21353;DHT22;10834;52.268;6.770;2023-02-01T10:07:47;7.80;99.90
21353;DHT22;10834;52.268;6.770;2023-02-01T10:10:47;7.80;99.90
21353;DHT22;10834;52.268;6.770;2023-02-01T10:13:49;7.80;99.90
21353;DHT22;10834;52.268;6.770;2023-02-01T10:17:12;7.90;99.90
21353;DHT22;10834;52.268;6.770;2023-02-01T10:20:23;8.00;99.90
21353;DHT22;10834;52.268;6.770;2023-02-01T10:29:17;7.90;99.90
21353;DHT22;10834;52.268;6.770;2023-02-01T10:32:19;7.80;99.90
21353;DHT22;10834;52.268;6.770;2023-02-01T10:35:14;7.70;99.90
21353;DHT22;10834;52.268;6.770;2023-02-01T10:38:01;7.50;99.90
21353;DHT22;10834;52.268;6.770;2023-02-01T10:40:48;7.40;99.90
21353;DHT22;10834;52.268;6.770;2023-02-01T10:43:35;7.20;99.90
21353;DHT22;10834;52.268;6.770;2023-02-01T10:46:23;7.10;99.90
21353;DHT22;10834;52.268;6.770;2023-02-01T10:49:24;7.00;99.90
21353;DHT22;10834;52.268;6.770;2023-02-01T10:52:48;6.90;99.90
21353;DHT22;10834;52.268;6.770;2023-02-01T10:58:30;6.80;99.90
21353;DHT22;10834;52.268;6.770;2023-02-01T11:01:40;6.80;99.90
21353;DHT22;10834;52.268;6.770;2023-02-01T11:04:28;6.80;99.90
21353;DHT22;10834;52.268;6.770;2023-02-01T11:07:23;6.80;99.90
21353;DHT22;10834;52.268;6.770;2023-02-01T11:10:37;6.70;99.90
21353;DHT22;10834;52.268;6.770;2023-02-01T11:13:29;6.60;99.90
21353;DHT22;10834;52.268;6.770;2023-02-01T11:16:16;6.60;99.90
21353;DHT22;10834;52.268;6.770;2023-02-01T11:19:04;6.60;99.90
21353;DHT22;10834;52.268;6.770;2023-02-01T11:21:56;6.60;99.90
21353;DHT22;10834;52.268;6.770;2023-02-01T11:24:45;6.50;99.90
21353;DHT22;10834;52.268;6.770;2023-02-01T11:27:33;6.50;99.90
21353;DHT22;10834;52.268;6.770;2023-02-01T11:30:33;6.50;99.90
21353;DHT22;10834;52.268;6.770;2023-02-01T11:33:25;6.50;99.90
21353;DHT22;10834;52.268;6.770;2023-02-01T11:36:18;6.60;99.90
21353;DHT22;10834;52.268;6.770;2023-02-01T11:41:58;6.60;99.90
21353;DHT22;10834;52.268;6.770;2023-02-01T11:44:46;6.60;99.90
21353;DHT22;10834;52.268;6.770;2023-02-01T11:47:39;6.60;99.90
21353;DHT22;10834;52.268;6.770;2023-02-01T11:59:59;6.70;99.90
21353;DHT22;10834;52.268;6.770;2023-02-01T12:06:22;6.90;99.90
21353;DHT22;10834;52.268;6.770;2023-02-01T12:09:31;7.00;99.90
21353;DHT22;10834;52.268;6.770;2023-02-01T12:34:09;7.30;99.90
21353;DHT22;10834;52.268;6.770;2023-02-01T12:43:12;7.40;99.90
21353;DHT22;10834;52.268;6.770;2023-02-01T12:46:12;7.40;99.90
21353;DHT22;10834;52.268;6.770;2023-02-01T12:49:09;7.60;99.90
21353;DHT22;10834;52.268;6.770;2023-02-01T12:52:04;7.60;99.90
21353;DHT22;10834;52.268;6.770;2023-02-01T12:58:00;7.70;99.90
21353;DHT22;10834;52.268;6.770;2023-02-01T13:00:54;7.80;99.90
21353;DHT22;10834;52.268;6.770;2023-02-01T13:03:50;7.80;99.90
21353;DHT22;10834;52.268;6.770;2023-02-01T13:06:52;7.90;99.90
21353;DHT22;10834;52.268;6.770;2023-02-01T13:10:02;7.90;99.90
21353;DHT22;10834;52.268;6.770;2023-02-01T13:13:15;7.80;99.90
21353;DHT22;10834;52.268;6.770;2023-02-01T13:16:14;7.80;99.90
21353;DHT22;10834;52.268;6.770;2023-02-01T13:19:29;7.70;99.90
21353;DHT22;10834;52.268;6.770;2023-02-01T13:22:37;7.90;99.90
21353;DHT22;10834;52.268;6.770;2023-02-01T13:25:49;8.00;99.90
21353;DHT22;10834;52.268;6.770;2023-02-01T13:28:52;8.20;99.90
21353;DHT22;10834;52.268;6.770;2023-02-01T13:41:41;8.20;99.90
21353;DHT22;10834;52.268;6.770;2023-02-01T13:44:43;8.00;99.90
21353;DHT22;10834;52.268;6.770;2023-02-01T13:47:35;8.10;99.90
21353;DHT22;10834;52.268;6.770;2023-02-01T13:50:28;8.20;99.90
21353;DHT22;10834;52.268;6.770;2023-02-01T13:53:18;8.30;99.90
21353;DHT22;10834;52.268;6.770;2023-02-01T13:56:16;8.20;99.90
21353;DHT22;10834;52.268;6.770;2023-02-01T13:59:36;8.20;99.90
21353;DHT22;10834;52.268;6.770;2023-02-01T14:08:12;8.10;99.90
21353;DHT22;10834;52.268;6.770;2023-02-01T14:10:58;8.10;99.90
21353;DHT22;10834;52.268;6.770;2023-02-01T14:13:45;8.00;99.90
21353;DHT22;10834;52.268;6.770;2023-02-01T14:16:31;8.00;99.90
21353;DHT22;10834;52.268;6.770;2023-02-01T14:19:24;8.00;99.90
21353;DHT22;10834;52.268;6.770;2023-02-01T14:25:16;7.90;99.90
21353;DHT22;10834;52.268;6.770;2023-02-01T14:28:11;8.00;99.90
21353;DHT22;10834;52.268;6.770;2023-02-01T14:30:58;8.00;99.90
21353;DHT22;10834;52.268;6.770;2023-02-01T14:33:46;8.00;99.90
21353;DHT22;10834;52.268;6.770;2023-02-01T14:37:00;8.00;99.90
21353;DHT22;10834;52.268;6.770;2023-02-01T14:50:59;8.10;99.90
21353;DHT22;10834;52.268;6.770;2023-02-01T14:53:46;8.20;99.90
21353;DHT22;10834;52.268;6.770;2023-02-01T14:56:33;8.20;99.90
21353;DHT22;10834;52.268;6.770;2023-02-01T14:59:22;8.30;99.90
21353;DHT22;10834;52.268;6.770;2023-02-01T15:02:23;8.30;99.90
21353;DHT22;10834;52.268;6.770;2023-02-01T15:05:29;8.20;99.90
21353;DHT22;10834;52.268;6.770;2023-02-01T15:08:21;8.10;99.90
21353;DHT22;10834;52.268;6.770;2023-02-01T15:11:14;7.90;99.90
21353;DHT22;10834;52.268;6.770;2023-02-01T15:14:00;7.90;99.90
21353;DHT22;10834;52.268;6.770;2023-02-01T15:16:46;7.90;99.90
21353;DHT22;10834;52.268;6.770;2023-02-01T15:19:39;8.00;99.90
21353;DHT22;10834;52.268;6.770;2023-02-01T15:22:38;8.00;99.90
21353;DHT22;10834;52.268;6.770;2023-02-01T15:25:27;8.10;99.90
21353;DHT22;10834;52.268;6.770;2023-02-01T15:28:15;7.90;99.90
21353;DHT22;10834;52.268;6.770;2023-02-01T15:31:04;7.90;99.90
21353;DHT22;10834;52.268;6.770;2023-02-01T15:33:57;7.80;99.90
21353;DHT22;10834;52.268;6.770;2023-02-01T15:36:44;7.80;99.90
21353;DHT22;10834;52.268;6.770;2023-02-01T15:39:30;7.80;99.90
21353;DHT22;10834;52.268;6.770;2023-02-01T15:42:17;7.70;99.90
21353;DHT22;10834;52.268;6.770;2023-02-01T15:45:17;7.60;99.90
21353;DHT22;10834;52.268;6.770;2023-02-01T15:48:03;7.50;99.90
21353;DHT22;10834;52.268;6.770;2023-02-01T15:50:50;7.40;99.90
21353;DHT22;10834;52.268;6.770;2023-02-01T15:53:36;7.40;99.90
21353;DHT22;10834;52.268;6.770;2023-02-01T15:56:34;7.30;99.90
21353;DHT22;10834;52.268;6.770;2023-02-01T15:59:24;7.30;99.90
21353;DHT22;10834;52.268;6.770;2023-02-01T16:02:33;7.30;99.90
21353;DHT22;10834;52.268;6.770;2023-02-01T16:05:46;7.30;99.90
21353;DHT22;10834;52.268;6.770;2023-02-01T16:08:32;7.30;99.90
21353;DHT22;10834;52.268;6.770;2023-02-01T16:11:22;7.30;99.90
21353;DHT22;10834;52.268;6.770;2023-02-01T16:14:08;7.20;99.90
21353;DHT22;10834;52.268;6.770;2023-02-01T16:16:57;7.20;99.90
21353;DHT22;10834;52.268;6.770;2023-02-01T16:19:43;7.10;99.90
21353;DHT22;10834;52.268;6.770;2023-02-01T16:22:30;7.00;99.90
21353;DHT22;10834;52.268;6.770;2023-02-01T16:25:16;7.00;99.90
21353;DHT22;10834;52.268;6.770;2023-02-01T16:28:02;7.00;99.90
21353;DHT22;10834;52.268;6.770;2023-02-01T16:30:49;7.00;99.90
21353;DHT22;10834;52.268;6.770;2023-02-01T16:33:35;6.90;99.90
21353;DHT22;10834;52.268;6.770;2023-02-01T16:36:22;6.80;99.90
21353;DHT22;10834;52.268;6.770;2023-02-01T16:39:10;6.80;99.90
21353;DHT22;10834;52.268;6.770;2023-02-01T16:41:57;6.80;99.90
21353;DHT22;10834;52.268;6.770;2023-02-01T16:44:43;6.80;99.90
21353;DHT22;10834;52.268;6.770;2023-02-01T16:47:29;6.80;99.90
21353;DHT22;10834;52.268;6.770;2023-02-01T16:50:17;6.80;99.90
21353;DHT22;10834;52.268;6.770;2023-02-01T16:53:04;6.80;99.90
21353;DHT22;10834;52.268;6.770;2023-02-01T16:55:50;6.70;99.90
21353;DHT22;10834;52.268;6.770;2023-02-01T16:58:37;6.80;99.90
21353;DHT22;10834;52.268;6.770;2023-02-01T17:01:26;6.70;99.90
21353;DHT22;10834;52.268;6.770;2023-02-01T17:04:12;6.70;99.90
21353;DHT22;10834;52.268;6.770;2023-02-01T17:07:00;6.60;99.90
21353;DHT22;10834;52.268;6.770;2023-02-01T17:09:48;6.60;99.90
21353;DHT22;10834;52.268;6.770;2023-02-01T17:12:34;6.50;99.90
21353;DHT22;10834;52.268;6.770;2023-02-01T17:15:20;6.50;99.90
21353;DHT22;10834;52.268;6.770;2023-02-01T17:18:12;6.50;99.90
21353;DHT22;10834;52.268;6.770;2023-02-01T17:21:02;6.60;99.90
21353;DHT22;10834;52.268;6.770;2023-02-01T17:23:49;6.60;99.90
21353;DHT22;10834;52.268;6.770;2023-02-01T17:26:35;6.60;99.90
21353;DHT22;10834;52.268;6.770;2023-02-01T17:29:21;6.70;99.90
21353;DHT22;10834;52.268;6.770;2023-02-01T17:32:13;6.60;99.90
21353;DHT22;10834;52.268;6.770;2023-02-01T17:35:01;6.60;99.90
21353;DHT22;10834;52.268;6.770;2023-02-01T17:37:47;6.50;99.90
21353;DHT22;10834;52.268;6.770;2023-02-01T17:40:33;6.40;99.90
21353;DHT22;10834;52.268;6.770;2023-02-01T17:43:22;6.30;99.90
21353;DHT22;10834;52.268;6.770;2023-02-01T17:46:14;6.20;99.90
21353;DHT22;10834;52.268;6.770;2023-02-01T17:49:00;6.10;99.90
21353;DHT22;10834;52.268;6.770;2023-02-01T17:51:48;6.10;99.90
21353;DHT22;10834;52.268;6.770;2023-02-01T17:54:35;6.00;99.90
21353;DHT22;10834;52.268;6.770;2023-02-01T17:57:21;6.00;99.90
21353;DHT22;10834;52.268;6.770;2023-02-01T18:00:08;6.00;99.90
21353;DHT22;10834;52.268;6.770;2023-02-01T18:02:55;6.00;99.90
21353;DHT22;10834;52.268;6.770;2023-02-01T18:05:42;6.20;99.90
21353;DHT22;10834;52.268;6.770;2023-02-01T18:08:35;6.20;99.90
21353;DHT22;10834;52.268;6.770;2023-02-01T18:11:23;6.30;99.90
21353;DHT22;10834;52.268;6.770;2023-02-01T18:14:11;6.30;99.90
21353;DHT22;10834;52.268;6.770;2023-02-01T18:17:00;6.30;99.90
21353;DHT22;10834;52.268;6.770;2023-02-01T18:19:46;6.30;99.90
21353;DHT22;10834;52.268;6.770;2023-02-01T18:22:32;6.20;99.90
21353;DHT22;10834;52.268;6.770;2023-02-01T18:25:20;6.20;99.90
21353;DHT22;10834;52.268;6.770;2023-02-01T18:28:06;6.10;99.90
21353;DHT22;10834;52.268;6.770;2023-02-01T18:30:52;6.10;99.90
21353;DHT22;10834;52.268;6.770;2023-02-01T18:33:38;6.00;99.90
21353;DHT22;10834;52.268;6.770;2023-02-01T18:36:25;6.00;99.90
21353;DHT22;10834;52.268;6.770;2023-02-01T18:39:12;5.90;99.90
21353;DHT22;10834;52.268;6.770;2023-02-01T18:41:58;5.90;99.90
21353;DHT22;10834;52.268;6.770;2023-02-01T18:44:44;5.80;99.90
21353;DHT22;10834;52.268;6.770;2023-02-01T18:47:30;5.60;99.90
21353;DHT22;10834;52.268;6.770;2023-02-01T18:50:17;5.50;99.90
21353;DHT22;10834;52.268;6.770;2023-02-01T18:53:07;5.40;99.90
21353;DHT22;10834;52.268;6.770;2023-02-01T18:55:56;5.30;99.90
21353;DHT22;10834;52.268;6.770;2023-02-01T18:58:42;5.30;99.90
21353;DHT22;10834;52.268;6.770;2023-02-01T19:01:28;5.30;99.90
21353;DHT22;10834;52.268;6.770;2023-02-01T19:04:14;5.30;99.90
21353;DHT22;10834;52.268;6.770;2023-02-01T19:07:00;5.30;99.90
21353;DHT22;10834;52.268;6.770;2023-02-01T19:09:46;5.20;99.90
21353;DHT22;10834;52.268;6.770;2023-02-01T19:12:33;5.10;99.90
21353;DHT22;10834;52.268;6.770;2023-02-01T19:15:20;5.00;99.90
21353;DHT22;10834;52.268;6.770;2023-02-01T19:18:07;5.00;99.90
21353;DHT22;10834;52.268;6.770;2023-02-01T19:20:54;5.00;99.90
21353;DHT22;10834;52.268;6.770;2023-02-01T19:23:40;4.90;99.90
21353;DHT22;10834;52.268;6.770;2023-02-01T19:26:27;4.90;99.90
21353;DHT22;10834;52.268;6.770;2023-02-01T19:29:13;4.90;99.90
21353;DHT22;10834;52.268;6.770;2023-02-01T19:31:59;4.90;99.90
21353;DHT22;10834;52.268;6.770;2023-02-01T19:34:45;4.90;99.90
21353;DHT22;10834;52.268;6.770;2023-02-01T19:37:31;4.90;99.90
21353;DHT22;10834;52.268;6.770;2023-02-01T19:40:18;4.90;99.90
21353;DHT22;10834;52.268;6.770;2023-02-01T19:43:04;4.80;99.90
21353;DHT22;10834;52.268;6.770;2023-02-01T19:45:52;4.80;99.90
21353;DHT22;10834;52.268;6.770;2023-02-01T19:48:38;4.80;99.90
21353;DHT22;10834;52.268;6.770;2023-02-01T19:51:24;4.70;99.90
21353;DHT22;10834;52.268;6.770;2023-02-01T19:54:11;4.70;99.90
21353;DHT22;10834;52.268;6.770;2023-02-01T19:56:57;4.70;99.90
21353;DHT22;10834;52.268;6.770;2023-02-01T19:59:43;4.70;99.90
21353;DHT22;10834;52.268;6.770;2023-02-01T20:02:29;4.70;99.90
21353;DHT22;10834;52.268;6.770;2023-02-01T20:05:15;4.70;99.90